VSP182 SBSV-SBBR
Flight info
| Callsign | VSP182 |
|---|---|
| Flight time | 1h 33m |
| Altitude | 38000 |
| Route | ARNOX UZ17 DALMU |
| Aircraft | B738/M-SDE2E3FGHIRWXY/LB1 |
Departure
| Time | 2026-04-28 15:56 |
|---|---|
| Airport | Deputado Luiz Eduardo Magalhães International Airport (SBSV) |
Arrival
| Time | 2026-04-28 17:30 |
|---|---|
| Airport | Presidente Juscelino Kubitschek International Airport (SBBR) |
| Time | Latitude | Longitude | Altitude | Speed | Heading |
|---|---|---|---|---|---|
| 2026-04-28 15:30 | -12.91357 | -38.33359 | 43 ft | 0 kts | 173° |
| 2026-04-28 15:47 | -12.91346 | -38.33360 | 43 ft | 4 kts | 168° |
| 2026-04-28 15:47 | -12.91322 | -38.33370 | 42 ft | 4 kts | 140° |
| 2026-04-28 15:47 | -12.91307 | -38.33390 | 43 ft | 4 kts | 94° |
| 2026-04-28 15:48 | -12.91308 | -38.33402 | 43 ft | 1 kts | 79° |
| 2026-04-28 15:48 | -12.91308 | -38.33404 | 43 ft | 0 kts | 79° |
| 2026-04-28 15:51 | -12.91308 | -38.33403 | 43 ft | 0 kts | 79° |
| 2026-04-28 15:54 | -12.91297 | -38.33351 | 40 ft | 11 kts | 74° |
| 2026-04-28 15:54 | -12.91235 | -38.33330 | 43 ft | 11 kts | 325° |
| 2026-04-28 15:55 | -12.91194 | -38.33397 | 42 ft | 11 kts | 294° |
| 2026-04-28 15:55 | -12.91189 | -38.33474 | 42 ft | 11 kts | 261° |
| 2026-04-28 15:55 | -12.91196 | -38.33551 | 42 ft | 11 kts | 286° |
| 2026-04-28 15:55 | -12.91135 | -38.33576 | 45 ft | 11 kts | 39° |
| 2026-04-28 15:56 | -12.91093 | -38.33437 | 45 ft | 50 kts | 78° |
| 2026-04-28 15:56 | -12.90966 | -38.32802 | 47 ft | 129 kts | 78° |
| 2026-04-28 15:56 | -12.90732 | -38.31699 | 248 ft | 176 kts | 77° |
| 2026-04-28 15:56 | -12.90440 | -38.30408 | 876 ft | 204 kts | 78° |
| 2026-04-28 15:57 | -12.90197 | -38.28835 | 1170 ft | 237 kts | 83° |
| 2026-04-28 15:57 | -12.89922 | -38.27202 | 2232 ft | 231 kts | 82° |
| 2026-04-28 15:57 | -12.90138 | -38.25546 | 2532 ft | 253 kts | 119° |
| 2026-04-28 15:57 | -12.91410 | -38.24288 | 3143 ft | 261 kts | 155° |
| 2026-04-28 15:58 | -12.93176 | -38.23903 | 3998 ft | 263 kts | 183° |
| 2026-04-28 15:58 | -12.94933 | -38.24385 | 4829 ft | 265 kts | 211° |
| 2026-04-28 15:58 | -12.96254 | -38.25695 | 5639 ft | 268 kts | 238° |
| 2026-04-28 15:58 | -12.97118 | -38.27397 | 6457 ft | 271 kts | 245° |
| 2026-04-28 15:59 | -12.97878 | -38.29183 | 7248 ft | 275 kts | 246° |
| 2026-04-28 15:59 | -12.98382 | -38.30382 | 7765 ft | 278 kts | 246° |
| 2026-04-28 15:59 | -12.99441 | -38.32830 | 8817 ft | 282 kts | 245° |
| 2026-04-28 15:59 | -13.00003 | -38.34091 | 9347 ft | 284 kts | 245° |
| 2026-04-28 16:00 | -13.00870 | -38.36004 | 10129 ft | 288 kts | 245° |
| 2026-04-28 16:00 | -13.01741 | -38.37913 | 10510 ft | 307 kts | 245° |
| 2026-04-28 16:00 | -13.02661 | -38.39981 | 10692 ft | 330 kts | 249° |
| 2026-04-28 16:00 | -13.03263 | -38.42330 | 10899 ft | 351 kts | 259° |
| 2026-04-28 16:01 | -13.03703 | -38.44831 | 11392 ft | 361 kts | 260° |
| 2026-04-28 16:01 | -13.04127 | -38.47382 | 12073 ft | 364 kts | 260° |
| 2026-04-28 16:01 | -13.04562 | -38.49945 | 12780 ft | 367 kts | 259° |
| 2026-04-28 16:01 | -13.05016 | -38.52533 | 13446 ft | 370 kts | 259° |
| 2026-04-28 16:02 | -13.05480 | -38.55110 | 14077 ft | 374 kts | 259° |
| 2026-04-28 16:02 | -13.05962 | -38.57748 | 14717 ft | 378 kts | 259° |
| 2026-04-28 16:02 | -13.06452 | -38.60409 | 15357 ft | 381 kts | 259° |
| 2026-04-28 16:02 | -13.06948 | -38.63094 | 15971 ft | 385 kts | 259° |
| 2026-04-28 16:03 | -13.07447 | -38.65801 | 16561 ft | 388 kts | 259° |
| 2026-04-28 16:03 | -13.07951 | -38.68530 | 17131 ft | 391 kts | 259° |
| 2026-04-28 16:03 | -13.08460 | -38.71290 | 17693 ft | 395 kts | 259° |
| 2026-04-28 16:03 | -13.08972 | -38.74065 | 18244 ft | 398 kts | 259° |
| 2026-04-28 16:04 | -13.09507 | -38.76871 | 18792 ft | 402 kts | 258° |
| 2026-04-28 16:04 | -13.10056 | -38.79693 | 19329 ft | 405 kts | 258° |
| 2026-04-28 16:04 | -13.10615 | -38.82539 | 19866 ft | 408 kts | 258° |
| 2026-04-28 16:04 | -13.10985 | -38.84430 | 20200 ft | 410 kts | 258° |
| 2026-04-28 16:05 | -13.11739 | -38.88288 | 20853 ft | 414 kts | 258° |
| 2026-04-28 16:05 | -13.12307 | -38.91197 | 21321 ft | 417 kts | 258° |
| 2026-04-28 16:05 | -13.12876 | -38.94127 | 21779 ft | 420 kts | 258° |
| 2026-04-28 16:05 | -13.13449 | -38.97079 | 22212 ft | 423 kts | 258° |
| 2026-04-28 16:06 | -13.14025 | -39.00054 | 22652 ft | 426 kts | 258° |
| 2026-04-28 16:06 | -13.14597 | -39.03009 | 23069 ft | 429 kts | 258° |
| 2026-04-28 16:06 | -13.15179 | -39.06019 | 23473 ft | 431 kts | 258° |
| 2026-04-28 16:06 | -13.15765 | -39.09049 | 23870 ft | 434 kts | 258° |
| 2026-04-28 16:07 | -13.16354 | -39.12099 | 24257 ft | 437 kts | 258° |
| 2026-04-28 16:07 | -13.16946 | -39.15163 | 24625 ft | 439 kts | 258° |
| 2026-04-28 16:07 | -13.18139 | -39.21350 | 25347 ft | 444 kts | 258° |
| 2026-04-28 16:08 | -13.18740 | -39.24470 | 25703 ft | 446 kts | 258° |
| 2026-04-28 16:08 | -13.19140 | -39.26544 | 25928 ft | 448 kts | 258° |
| 2026-04-28 16:08 | -13.19745 | -39.29687 | 26257 ft | 450 kts | 258° |
| 2026-04-28 16:09 | -13.20964 | -39.36028 | 26890 ft | 455 kts | 258° |
| 2026-04-28 16:09 | -13.21576 | -39.39214 | 27185 ft | 457 kts | 258° |
| 2026-04-28 16:09 | -13.22393 | -39.43473 | 27569 ft | 460 kts | 258° |
| 2026-04-28 16:10 | -13.23633 | -39.49938 | 28120 ft | 464 kts | 258° |
| 2026-04-28 16:10 | -13.24054 | -39.52138 | 28299 ft | 465 kts | 258° |
| 2026-04-28 16:10 | -13.25298 | -39.58640 | 28810 ft | 469 kts | 258° |
| 2026-04-28 16:11 | -13.26556 | -39.65228 | 29368 ft | 470 kts | 258° |
| 2026-04-28 16:11 | -13.27811 | -39.71806 | 30146 ft | 467 kts | 258° |
| 2026-04-28 16:12 | -13.29617 | -39.78181 | 30751 ft | 466 kts | 245° |
| 2026-04-28 16:12 | -13.31005 | -39.81188 | 31090 ft | 465 kts | 244° |
| 2026-04-28 16:13 | -13.33806 | -39.87171 | 31720 ft | 464 kts | 245° |
| 2026-04-28 16:13 | -13.35154 | -39.90179 | 32013 ft | 464 kts | 245° |
| 2026-04-28 16:13 | -13.37782 | -39.96173 | 32614 ft | 462 kts | 246° |
| 2026-04-28 16:14 | -13.40401 | -40.02200 | 33171 ft | 461 kts | 246° |
| 2026-04-28 16:14 | -13.43009 | -40.08209 | 33705 ft | 460 kts | 246° |
| 2026-04-28 16:15 | -13.45614 | -40.14211 | 34217 ft | 459 kts | 246° |
| 2026-04-28 16:15 | -13.46914 | -40.17207 | 34457 ft | 459 kts | 246° |
| 2026-04-28 16:15 | -13.48213 | -40.20201 | 34703 ft | 458 kts | 246° |
| 2026-04-28 16:16 | -13.50804 | -40.26177 | 35164 ft | 457 kts | 246° |
| 2026-04-28 16:16 | -13.52080 | -40.29122 | 35388 ft | 457 kts | 246° |
| 2026-04-28 16:17 | -13.54662 | -40.35083 | 35819 ft | 456 kts | 246° |
| 2026-04-28 16:17 | -13.55949 | -40.38057 | 36028 ft | 455 kts | 246° |
| 2026-04-28 16:17 | -13.57236 | -40.41030 | 36229 ft | 455 kts | 246° |
| 2026-04-28 16:17 | -13.58522 | -40.44003 | 36400 ft | 455 kts | 246° |
| 2026-04-28 16:18 | -13.59807 | -40.46975 | 36567 ft | 456 kts | 246° |
| 2026-04-28 16:18 | -13.61092 | -40.49950 | 36744 ft | 455 kts | 246° |
| 2026-04-28 16:18 | -13.62376 | -40.52923 | 36910 ft | 455 kts | 246° |
| 2026-04-28 16:18 | -13.63663 | -40.55902 | 37073 ft | 455 kts | 246° |
| 2026-04-28 16:19 | -13.64949 | -40.58881 | 37219 ft | 455 kts | 246° |
| 2026-04-28 16:19 | -13.66234 | -40.61860 | 37383 ft | 455 kts | 246° |
| 2026-04-28 16:19 | -13.67519 | -40.64839 | 37532 ft | 455 kts | 246° |
| 2026-04-28 16:19 | -13.68801 | -40.67814 | 37668 ft | 455 kts | 246° |
| 2026-04-28 16:20 | -13.70087 | -40.70797 | 37808 ft | 455 kts | 246° |
| 2026-04-28 16:20 | -13.71368 | -40.73772 | 37942 ft | 455 kts | 246° |
| 2026-04-28 16:20 | -13.73942 | -40.79751 | 37995 ft | 458 kts | 246° |
| 2026-04-28 16:21 | -13.76495 | -40.85698 | 38000 ft | 456 kts | 246° |
| 2026-04-28 16:21 | -13.79054 | -40.91667 | 38002 ft | 455 kts | 246° |
| 2026-04-28 16:22 | -13.81607 | -40.97624 | 38001 ft | 454 kts | 246° |
| 2026-04-28 16:22 | -13.84155 | -41.03575 | 38000 ft | 453 kts | 246° |
| 2026-04-28 16:23 | -13.86695 | -41.09512 | 37999 ft | 453 kts | 246° |
| 2026-04-28 16:23 | -13.89215 | -41.15401 | 38003 ft | 452 kts | 246° |
| 2026-04-28 16:24 | -13.91756 | -41.21329 | 38001 ft | 452 kts | 246° |
| 2026-04-28 16:24 | -13.94299 | -41.27265 | 38005 ft | 453 kts | 246° |
| 2026-04-28 16:25 | -13.96840 | -41.33206 | 38002 ft | 453 kts | 246° |
| 2026-04-28 16:25 | -13.99382 | -41.39154 | 38002 ft | 454 kts | 246° |
| 2026-04-28 16:26 | -14.01929 | -41.45118 | 38002 ft | 455 kts | 246° |
| 2026-04-28 16:26 | -14.04458 | -41.51043 | 38002 ft | 455 kts | 246° |
| 2026-04-28 16:27 | -14.07006 | -41.57021 | 38002 ft | 456 kts | 246° |
| 2026-04-28 16:28 | -14.10832 | -41.66004 | 38004 ft | 457 kts | 246° |
| 2026-04-28 16:28 | -14.13382 | -41.71996 | 37999 ft | 457 kts | 246° |
| 2026-04-28 16:29 | -14.17208 | -41.80997 | 38001 ft | 457 kts | 246° |
| 2026-04-28 16:30 | -14.21034 | -41.90010 | 38001 ft | 457 kts | 246° |
| 2026-04-28 16:30 | -14.23582 | -41.96018 | 38002 ft | 457 kts | 246° |
| 2026-04-28 16:31 | -14.26123 | -42.02013 | 38000 ft | 456 kts | 246° |
| 2026-04-28 16:31 | -14.28660 | -42.08005 | 38002 ft | 456 kts | 246° |
| 2026-04-28 16:32 | -14.31180 | -42.13962 | 37999 ft | 456 kts | 246° |
| 2026-04-28 16:32 | -14.34973 | -42.22938 | 38001 ft | 455 kts | 246° |
| 2026-04-28 16:33 | -14.37087 | -42.27951 | 38001 ft | 455 kts | 246° |
| 2026-04-28 16:33 | -14.40009 | -42.34904 | 38002 ft | 454 kts | 246° |
| 2026-04-28 16:34 | -14.42522 | -42.40891 | 38000 ft | 454 kts | 246° |
| 2026-04-28 16:34 | -14.45030 | -42.46868 | 38003 ft | 454 kts | 246° |
| 2026-04-28 16:35 | -14.47544 | -42.52849 | 38001 ft | 454 kts | 246° |
| 2026-04-28 16:35 | -14.50063 | -42.58837 | 38002 ft | 454 kts | 246° |
| 2026-04-28 16:36 | -14.52559 | -42.64781 | 38000 ft | 455 kts | 246° |
| 2026-04-28 16:36 | -14.55071 | -42.70769 | 38003 ft | 455 kts | 246° |
| 2026-04-28 16:37 | -14.57586 | -42.76770 | 38002 ft | 455 kts | 246° |
| 2026-04-28 16:38 | -14.61358 | -42.85781 | 38003 ft | 456 kts | 246° |
| 2026-04-28 16:38 | -14.63870 | -42.91786 | 37998 ft | 456 kts | 246° |
| 2026-04-28 16:39 | -14.66385 | -42.97804 | 38002 ft | 456 kts | 246° |
| 2026-04-28 16:39 | -14.68898 | -43.03823 | 38001 ft | 456 kts | 246° |
| 2026-04-28 16:40 | -14.71410 | -43.09846 | 38001 ft | 456 kts | 246° |
| 2026-04-28 16:40 | -14.73917 | -43.15859 | 38001 ft | 456 kts | 246° |
| 2026-04-28 16:41 | -14.76409 | -43.21844 | 38001 ft | 456 kts | 246° |
| 2026-04-28 16:41 | -14.78912 | -43.27859 | 38001 ft | 456 kts | 246° |
| 2026-04-28 16:42 | -14.81417 | -43.33883 | 38001 ft | 456 kts | 246° |
| 2026-04-28 16:42 | -14.83915 | -43.39897 | 38001 ft | 456 kts | 246° |
| 2026-04-28 16:43 | -14.86415 | -43.45921 | 38001 ft | 455 kts | 246° |
| 2026-04-28 16:43 | -14.88897 | -43.51906 | 38003 ft | 455 kts | 246° |
| 2026-04-28 16:44 | -14.91393 | -43.57932 | 38000 ft | 455 kts | 246° |
| 2026-04-28 16:44 | -14.93884 | -43.63949 | 38002 ft | 455 kts | 246° |
| 2026-04-28 16:45 | -14.96376 | -43.69976 | 38001 ft | 455 kts | 246° |
| 2026-04-28 16:45 | -14.98867 | -43.76005 | 38001 ft | 455 kts | 246° |
| 2026-04-28 16:46 | -15.01353 | -43.82024 | 38001 ft | 455 kts | 246° |
| 2026-04-28 16:46 | -15.03839 | -43.88054 | 38002 ft | 455 kts | 247° |
| 2026-04-28 16:47 | -15.06318 | -43.94077 | 38001 ft | 455 kts | 247° |
| 2026-04-28 16:47 | -15.08795 | -44.00102 | 38003 ft | 455 kts | 247° |
| 2026-04-28 16:48 | -15.11259 | -44.06100 | 38002 ft | 455 kts | 247° |
| 2026-04-28 16:48 | -15.13740 | -44.12143 | 37998 ft | 456 kts | 247° |
| 2026-04-28 16:49 | -15.16215 | -44.18178 | 38001 ft | 456 kts | 247° |
| 2026-04-28 16:49 | -15.18692 | -44.24225 | 38001 ft | 456 kts | 247° |
| 2026-04-28 16:50 | -15.21168 | -44.30275 | 38000 ft | 456 kts | 247° |
| 2026-04-28 16:50 | -15.23645 | -44.36326 | 37999 ft | 456 kts | 247° |
| 2026-04-28 16:51 | -15.26125 | -44.42380 | 38000 ft | 456 kts | 247° |
| 2026-04-28 16:51 | -15.28599 | -44.48424 | 37999 ft | 456 kts | 247° |
| 2026-04-28 16:52 | -15.31072 | -44.54474 | 38004 ft | 456 kts | 247° |
| 2026-04-28 16:52 | -15.33123 | -44.59499 | 38000 ft | 456 kts | 247° |
| 2026-04-28 16:53 | -15.35593 | -44.65553 | 38001 ft | 456 kts | 247° |
| 2026-04-28 16:53 | -15.38058 | -44.71599 | 38001 ft | 455 kts | 247° |
| 2026-04-28 16:54 | -15.40523 | -44.77652 | 38001 ft | 455 kts | 247° |
| 2026-04-28 16:54 | -15.42966 | -44.83658 | 38001 ft | 455 kts | 247° |
| 2026-04-28 16:55 | -15.45426 | -44.89709 | 38001 ft | 455 kts | 247° |
| 2026-04-28 16:55 | -15.47885 | -44.95764 | 38000 ft | 455 kts | 247° |
| 2026-04-28 16:56 | -15.50343 | -45.01822 | 38001 ft | 455 kts | 247° |
| 2026-04-28 16:56 | -15.52796 | -45.07873 | 38002 ft | 455 kts | 247° |
| 2026-04-28 16:57 | -15.55247 | -45.13925 | 38001 ft | 455 kts | 247° |
| 2026-04-28 16:57 | -15.57695 | -45.19977 | 38002 ft | 455 kts | 247° |
| 2026-04-28 16:58 | -15.60144 | -45.26042 | 38000 ft | 455 kts | 247° |
| 2026-04-28 16:58 | -15.62577 | -45.32068 | 38002 ft | 455 kts | 247° |
| 2026-04-28 16:59 | -15.65021 | -45.38130 | 38000 ft | 455 kts | 247° |
| 2026-04-28 16:59 | -15.67466 | -45.44199 | 38001 ft | 455 kts | 247° |
| 2026-04-28 17:00 | -15.69909 | -45.50270 | 38002 ft | 455 kts | 247° |
| 2026-04-28 17:00 | -15.72348 | -45.56336 | 38000 ft | 456 kts | 247° |
| 2026-04-28 17:01 | -15.74787 | -45.62407 | 38000 ft | 456 kts | 247° |
| 2026-04-28 17:01 | -15.77225 | -45.68482 | 38002 ft | 456 kts | 247° |
| 2026-04-28 17:02 | -15.79662 | -45.74558 | 37999 ft | 456 kts | 247° |
| 2026-04-28 17:02 | -15.81354 | -45.80872 | 38006 ft | 455 kts | 263° |
| 2026-04-28 17:03 | -15.81398 | -45.90686 | 38004 ft | 455 kts | 270° |
| 2026-04-28 17:03 | -15.81314 | -45.97265 | 38000 ft | 456 kts | 270° |
| 2026-04-28 17:04 | -15.81237 | -46.07147 | 38001 ft | 456 kts | 270° |
| 2026-04-28 17:05 | -15.81175 | -46.17022 | 38002 ft | 456 kts | 270° |
| 2026-04-28 17:06 | -15.81107 | -46.26914 | 37999 ft | 457 kts | 270° |
| 2026-04-28 17:06 | -15.81034 | -46.36792 | 37982 ft | 449 kts | 270° |
| 2026-04-28 17:07 | -15.81010 | -46.39946 | 37980 ft | 437 kts | 270° |
| 2026-04-28 17:07 | -15.80985 | -46.43070 | 37986 ft | 430 kts | 270° |
| 2026-04-28 17:07 | -15.80935 | -46.49289 | 38014 ft | 432 kts | 270° |
| 2026-04-28 17:08 | -15.80883 | -46.55579 | 38014 ft | 438 kts | 270° |
| 2026-04-28 17:08 | -15.80829 | -46.61944 | 38007 ft | 443 kts | 270° |
| 2026-04-28 17:09 | -15.80771 | -46.68362 | 38009 ft | 446 kts | 270° |
| 2026-04-28 17:09 | -15.80712 | -46.74792 | 37989 ft | 442 kts | 270° |
| 2026-04-28 17:10 | -15.80652 | -46.81106 | 37993 ft | 434 kts | 270° |
| 2026-04-28 17:10 | -15.80591 | -46.87348 | 37856 ft | 434 kts | 270° |
| 2026-04-28 17:11 | -15.80560 | -46.90469 | 37193 ft | 431 kts | 270° |
| 2026-04-28 17:11 | -15.80528 | -46.93597 | 36216 ft | 435 kts | 270° |
| 2026-04-28 17:11 | -15.80496 | -46.96762 | 35119 ft | 442 kts | 270° |
| 2026-04-28 17:11 | -15.80462 | -46.99981 | 33958 ft | 449 kts | 270° |
| 2026-04-28 17:12 | -15.80428 | -47.03250 | 32757 ft | 455 kts | 270° |
| 2026-04-28 17:12 | -15.80393 | -47.06542 | 31787 ft | 456 kts | 270° |
| 2026-04-28 17:12 | -15.80357 | -47.09811 | 31083 ft | 449 kts | 270° |
| 2026-04-28 17:12 | -15.80321 | -47.13017 | 30439 ft | 441 kts | 270° |
| 2026-04-28 17:13 | -15.80286 | -47.16187 | 29734 ft | 435 kts | 270° |
| 2026-04-28 17:13 | -15.80250 | -47.19311 | 28984 ft | 430 kts | 270° |
| 2026-04-28 17:13 | -15.80215 | -47.22360 | 28231 ft | 426 kts | 270° |
| 2026-04-28 17:13 | -15.80180 | -47.25417 | 27488 ft | 421 kts | 270° |
| 2026-04-28 17:14 | -15.80145 | -47.28438 | 26762 ft | 416 kts | 270° |
| 2026-04-28 17:14 | -15.80109 | -47.31429 | 26038 ft | 411 kts | 270° |
| 2026-04-28 17:14 | -15.80073 | -47.34388 | 25324 ft | 407 kts | 270° |
| 2026-04-28 17:14 | -15.80038 | -47.37309 | 24613 ft | 402 kts | 270° |
| 2026-04-28 17:15 | -15.80003 | -47.40196 | 23908 ft | 398 kts | 270° |
| 2026-04-28 17:15 | -15.79967 | -47.43051 | 23202 ft | 393 kts | 270° |
| 2026-04-28 17:15 | -15.79932 | -47.45883 | 22506 ft | 389 kts | 270° |
| 2026-04-28 17:15 | -15.79897 | -47.48640 | 21820 ft | 385 kts | 270° |
| 2026-04-28 17:16 | -15.79861 | -47.51410 | 21126 ft | 381 kts | 270° |
| 2026-04-28 17:16 | -15.79826 | -47.54148 | 20440 ft | 377 kts | 270° |
| 2026-04-28 17:16 | -15.79791 | -47.56853 | 19767 ft | 373 kts | 270° |
| 2026-04-28 17:16 | -15.79755 | -47.59539 | 19091 ft | 369 kts | 270° |
| 2026-04-28 17:17 | -15.79720 | -47.62188 | 18427 ft | 365 kts | 270° |
| 2026-04-28 17:17 | -15.79685 | -47.64818 | 17762 ft | 362 kts | 270° |
| 2026-04-28 17:17 | -15.79650 | -47.67417 | 17112 ft | 358 kts | 270° |
| 2026-04-28 17:17 | -15.79615 | -47.69990 | 16464 ft | 355 kts | 270° |
| 2026-04-28 17:18 | -15.79580 | -47.72537 | 15815 ft | 351 kts | 270° |
| 2026-04-28 17:18 | -15.79545 | -47.75065 | 15169 ft | 348 kts | 270° |
| 2026-04-28 17:18 | -15.79510 | -47.77564 | 14499 ft | 345 kts | 270° |
| 2026-04-28 17:18 | -15.79475 | -47.80054 | 13815 ft | 343 kts | 270° |
| 2026-04-28 17:19 | -15.79440 | -47.82469 | 13351 ft | 335 kts | 270° |
| 2026-04-28 17:19 | -15.79406 | -47.84855 | 12943 ft | 327 kts | 270° |
| 2026-04-28 17:19 | -15.79372 | -47.87199 | 12555 ft | 322 kts | 270° |
| 2026-04-28 17:19 | -15.79338 | -47.89512 | 12182 ft | 320 kts | 270° |
| 2026-04-28 17:20 | -15.79304 | -47.91847 | 11807 ft | 328 kts | 270° |
| 2026-04-28 17:20 | -15.79282 | -47.93422 | 11546 ft | 329 kts | 270° |
| 2026-04-28 17:20 | -15.79235 | -47.96553 | 11009 ft | 318 kts | 270° |
| 2026-04-28 17:20 | -15.79200 | -47.98840 | 10643 ft | 314 kts | 270° |
| 2026-04-28 17:21 | -15.79167 | -48.01061 | 10443 ft | 306 kts | 270° |
| 2026-04-28 17:21 | -15.79133 | -48.03258 | 10324 ft | 307 kts | 270° |
| 2026-04-28 17:21 | -15.79100 | -48.05478 | 10205 ft | 306 kts | 270° |
| 2026-04-28 17:22 | -15.79034 | -48.09780 | 9915 ft | 289 kts | 270° |
| 2026-04-28 17:22 | -15.79001 | -48.11851 | 9690 ft | 286 kts | 270° |
| 2026-04-28 17:22 | -15.78969 | -48.13916 | 9392 ft | 285 kts | 270° |
| 2026-04-28 17:23 | -15.78914 | -48.18019 | 8802 ft | 283 kts | 266° |
| 2026-04-28 17:23 | -15.79457 | -48.19963 | 8496 ft | 282 kts | 238° |
| 2026-04-28 17:23 | -15.80784 | -48.21421 | 8268 ft | 278 kts | 211° |
| 2026-04-28 17:23 | -15.82532 | -48.22131 | 8249 ft | 266 kts | 189° |
| 2026-04-28 17:24 | -15.84311 | -48.22028 | 8111 ft | 260 kts | 158° |
| 2026-04-28 17:24 | -15.85669 | -48.20889 | 7998 ft | 251 kts | 120° |
| 2026-04-28 17:24 | -15.86356 | -48.19266 | 7873 ft | 242 kts | 114° |
| 2026-04-28 17:24 | -15.87028 | -48.17679 | 7603 ft | 234 kts | 115° |
| 2026-04-28 17:25 | -15.87600 | -48.16151 | 7354 ft | 221 kts | 100° |
| 2026-04-28 17:25 | -15.87653 | -48.13130 | 6912 ft | 199 kts | 88° |
| 2026-04-28 17:25 | -15.87580 | -48.11708 | 6698 ft | 195 kts | 86° |
| 2026-04-28 17:26 | -15.87495 | -48.10343 | 6534 ft | 188 kts | 87° |
| 2026-04-28 17:26 | -15.87407 | -48.08990 | 6418 ft | 188 kts | 86° |
| 2026-04-28 17:26 | -15.87321 | -48.07667 | 6253 ft | 180 kts | 86° |
| 2026-04-28 17:26 | -15.87240 | -48.06408 | 6031 ft | 171 kts | 87° |
| 2026-04-28 17:27 | -15.87160 | -48.05185 | 5809 ft | 169 kts | 86° |
| 2026-04-28 17:27 | -15.87081 | -48.03981 | 5582 ft | 166 kts | 86° |
| 2026-04-28 17:27 | -15.87004 | -48.02783 | 5371 ft | 167 kts | 86° |
| 2026-04-28 17:27 | -15.86927 | -48.01579 | 5142 ft | 166 kts | 87° |
| 2026-04-28 17:28 | -15.86849 | -48.00387 | 4926 ft | 164 kts | 87° |
| 2026-04-28 17:28 | -15.86698 | -47.98030 | 4494 ft | 165 kts | 86° |
| 2026-04-28 17:28 | -15.86605 | -47.96847 | 4280 ft | 162 kts | 85° |
| 2026-04-28 17:29 | -15.86533 | -47.95694 | 4107 ft | 157 kts | 88° |
| 2026-04-28 17:29 | -15.86475 | -47.94565 | 3866 ft | 156 kts | 86° |
| 2026-04-28 17:29 | -15.86389 | -47.93447 | 3654 ft | 154 kts | 86° |
| 2026-04-28 17:30 | -15.86272 | -47.91452 | 3463 ft | 67 kts | 86° |
| 2026-04-28 17:30 | -15.86258 | -47.90874 | 3477 ft | 28 kts | 111° |
| 2026-04-28 17:30 | -15.86355 | -47.90734 | 3479 ft | 15 kts | 131° |
| 2026-04-28 17:31 | -15.86421 | -47.90758 | 3483 ft | 15 kts | 264° |
| 2026-04-28 17:31 | -15.86434 | -47.90964 | 3476 ft | 15 kts | 266° |
| 2026-04-28 17:32 | -15.86452 | -47.91203 | 3469 ft | 16 kts | 265° |
| 2026-04-28 17:32 | -15.86462 | -47.91319 | 3467 ft | 16 kts | 264° |
| 2026-04-28 17:32 | -15.86473 | -47.91431 | 3467 ft | 15 kts | 264° |
| 2026-04-28 17:32 | -15.86483 | -47.91538 | 3465 ft | 15 kts | 264° |
| 2026-04-28 17:33 | -15.86484 | -47.91644 | 3464 ft | 14 kts | 269° |
| 2026-04-28 17:33 | -15.86488 | -47.91750 | 3463 ft | 17 kts | 265° |
| 2026-04-28 17:33 | -15.86567 | -47.91809 | 3463 ft | 16 kts | 184° |
| 2026-04-28 17:33 | -15.86600 | -47.91826 | 3462 ft | 16 kts | 226° |
| 2026-04-28 17:34 | -15.86712 | -47.91891 | 3462 ft | 0 kts | 176° |